createdAt,value
2022-11-29T00:02:23.127Z,999.1
2022-11-29T00:07:19.566Z,999.1
2022-11-29T00:12:16.080Z,999.1
2022-11-29T00:17:12.645Z,999.1
2022-11-29T00:22:09.179Z,999.1
2022-11-29T00:27:05.757Z,999.1
2022-11-29T00:32:02.287Z,999.1
2022-11-29T00:36:58.858Z,999.2
2022-11-29T00:41:55.362Z,999.2
2022-11-29T00:46:51.902Z,999.2
2022-11-29T00:51:48.516Z,999.2
2022-11-29T00:56:45.061Z,999.2
2022-11-29T01:04:09.848Z,999.2
2022-11-29T01:06:38.111Z,999.3
2022-11-29T01:14:02.979Z,999.3
2022-11-29T01:16:31.344Z,999.3
2022-11-29T01:21:27.824Z,999.3
2022-11-29T01:26:24.382Z,999.4
2022-11-29T01:28:52.625Z,999.4
2022-11-29T01:33:49.182Z,999.3
2022-11-29T01:42:36.732Z,999.4
2022-11-29T01:47:33.302Z,999.4
2022-11-29T01:52:29.881Z,999.4
2022-11-29T01:57:26.435Z,999.5
2022-11-29T02:02:23.027Z,999.4
2022-11-29T02:09:47.798Z,999.3
2022-11-29T02:12:16.075Z,999.4
2022-11-29T02:17:12.612Z,999.4
2022-11-29T02:22:09.153Z,999.5
2022-11-29T02:27:05.704Z,999.4
2022-11-29T02:29:33.969Z,999.4
2022-11-29T02:34:30.542Z,999.4
2022-11-29T02:43:18.110Z,999.3
2022-11-29T02:48:14.668Z,999.4
2022-11-29T02:53:11.177Z,999.4
2022-11-29T02:58:07.746Z,999.4
2022-11-29T03:03:04.283Z,999.4
2022-11-29T03:08:00.934Z,999.4
2022-11-29T03:12:57.430Z,999.5
2022-11-29T03:17:53.941Z,999.5
2022-11-29T03:22:50.490Z,999.6
2022-11-29T03:26:20.148Z,999.7
2022-11-29T03:29:01.472Z,999.7
2022-11-29T03:34:08.567Z,999.7
2022-11-29T03:37:01.449Z,999.8
2022-11-29T03:39:01.615Z,999.8
2022-11-29T03:42:01.776Z,999.8
2022-11-29T03:45:01.741Z,999.8
2022-11-29T03:49:01.986Z,999.8
2022-11-29T03:53:01.407Z,999.9
2022-11-29T03:55:01.573Z,999.9
2022-11-29T03:57:08.659Z,999.8
2022-11-29T04:00:00.497Z,999.9
2022-11-29T04:02:01.432Z,999.9
2022-11-29T04:05:01.437Z,999.9
2022-11-29T04:08:02.035Z,999.9
2022-11-29T04:11:01.584Z,999.9
2022-11-29T04:14:01.601Z,999.9
2022-11-29T04:17:01.453Z,999.9
2022-11-29T04:20:08.060Z,999.9
2022-11-29T04:22:08.031Z,1000
2022-11-29T04:25:02.077Z,1000
2022-11-29T04:28:01.577Z,1000
2022-11-29T04:31:01.447Z,1000.1
2022-11-29T04:34:01.612Z,1000.1
2022-11-29T04:37:01.896Z,1000.1
2022-11-29T04:39:01.962Z,1000.2
2022-11-29T04:42:01.404Z,1000.2
2022-11-29T04:44:01.638Z,1000.2
2022-11-29T04:47:01.451Z,1000.2
2022-11-29T04:50:01.430Z,1000.2
2022-11-29T04:52:01.438Z,1000.2
2022-11-29T04:54:01.497Z,1000.2
2022-11-29T04:56:01.661Z,1000.2
2022-11-29T05:00:08.809Z,1000.3
2022-11-29T05:04:01.864Z,1000.4
2022-11-29T05:07:01.463Z,1000.4
2022-11-29T05:09:01.833Z,1000.4
2022-11-29T05:12:01.505Z,1000.4
2022-11-29T05:14:01.444Z,1000.5
2022-11-29T05:17:01.428Z,1000.5
2022-11-29T05:19:02.461Z,1000.6
2022-11-29T05:22:01.445Z,1000.6
2022-11-29T05:24:01.547Z,1000.6
2022-11-29T05:26:01.963Z,1000.6
2022-11-29T05:29:01.433Z,1000.6
2022-11-29T05:31:01.437Z,1000.6
2022-11-29T05:34:01.720Z,1000.6
2022-11-29T05:37:01.467Z,1000.6
2022-11-29T05:40:01.450Z,1000.7
2022-11-29T05:42:01.421Z,1000.7
2022-11-29T05:45:01.441Z,1000.7
2022-11-29T05:47:02.064Z,1000.7
2022-11-29T05:50:01.436Z,1000.7
2022-11-29T05:52:02.258Z,1000.8
2022-11-29T05:55:01.430Z,1000.8
2022-11-29T05:57:01.486Z,1000.8
2022-11-29T06:00:01.447Z,1000.8
2022-11-29T06:02:01.828Z,1000.8
2022-11-29T06:04:02.183Z,1000.8
2022-11-29T06:07:01.820Z,1000.8
2022-11-29T06:10:01.948Z,1000.9
2022-11-29T06:13:01.492Z,1000.9
2022-11-29T06:16:01.513Z,1001
2022-11-29T06:18:02.357Z,1001
2022-11-29T06:21:01.939Z,1001
2022-11-29T06:24:01.466Z,1001
2022-11-29T06:26:03.969Z,1001.1
2022-11-29T06:28:01.978Z,1001.1
2022-11-29T06:31:01.541Z,1001.1
2022-11-29T06:33:01.425Z,1001.1
2022-11-29T06:35:02.231Z,1001.2
2022-11-29T06:38:01.403Z,1001.2
2022-11-29T06:40:01.494Z,1001.2
2022-11-29T06:44:01.434Z,1001.2
2022-11-29T06:48:01.828Z,1001.2
2022-11-29T06:50:01.903Z,1001.3
2022-11-29T06:53:01.882Z,1001.3
2022-11-29T06:56:01.939Z,1001.3
2022-11-29T06:58:02.225Z,1001.3
2022-11-29T07:01:01.482Z,1001.3
2022-11-29T07:03:02.176Z,1001.4
2022-11-29T07:06:01.399Z,1001.4
2022-11-29T07:10:12.037Z,1001.4
2022-11-29T07:14:08.049Z,1001.4
2022-11-29T07:17:21.163Z,1001.4
2022-11-29T07:20:08.021Z,1001.4
2022-11-29T07:23:01.454Z,1001.5
2022-11-29T07:25:01.924Z,1001.5
2022-11-29T07:28:01.439Z,1001.5
2022-11-29T07:30:01.411Z,1001.6
2022-11-29T07:33:02.073Z,1001.6
2022-11-29T07:36:01.442Z,1001.6
2022-11-29T07:38:01.904Z,1001.6
2022-11-29T07:41:01.409Z,1001.6
2022-11-29T07:43:01.477Z,1001.6
2022-11-29T07:45:01.588Z,1001.6
2022-11-29T07:47:01.773Z,1001.6
2022-11-29T07:50:01.414Z,1001.6
2022-11-29T07:53:01.496Z,1001.6
2022-11-29T07:55:01.803Z,1001.6
2022-11-29T07:57:01.801Z,1001.6
2022-11-29T08:00:01.323Z,1001.6
2022-11-29T08:02:02.202Z,1001.6
2022-11-29T08:05:01.433Z,1001.6
2022-11-29T08:07:01.442Z,1001.6
2022-11-29T08:09:01.956Z,1001.7
2022-11-29T08:13:01.881Z,1001.7
2022-11-29T08:16:01.508Z,1001.8
2022-11-29T08:19:01.421Z,1001.8
2022-11-29T08:22:01.433Z,1001.8
2022-11-29T08:25:02.361Z,1001.9
2022-11-29T08:28:01.423Z,1001.9
2022-11-29T08:30:01.661Z,1001.9
2022-11-29T08:33:01.731Z,1002
2022-11-29T08:35:02.090Z,1002
2022-11-29T08:38:01.436Z,1002
2022-11-29T08:40:02.340Z,1002
2022-11-29T08:44:01.802Z,1002.1
2022-11-29T08:47:08.086Z,1002.1
2022-11-29T08:49:08.810Z,1002.1
2022-11-29T08:52:01.627Z,1002.1
2022-11-29T08:54:01.668Z,1002.1
2022-11-29T08:57:38.369Z,1002.2
2022-11-29T08:59:01.706Z,1002.1
2022-11-29T09:01:02.197Z,1002.2
2022-11-29T09:03:02.177Z,1002.2
2022-11-29T09:06:01.406Z,1002.2
2022-11-29T09:08:01.464Z,1002.2
2022-11-29T09:10:08.030Z,1002.3
2022-11-29T09:12:08.662Z,1002.3
2022-11-29T09:15:01.432Z,1002.3
2022-11-29T09:18:01.423Z,1002.3
2022-11-29T09:20:02.134Z,1002.4
2022-11-29T09:23:01.993Z,1002.4
2022-11-29T09:26:01.427Z,1002.4
2022-11-29T09:29:01.797Z,1002.5
2022-11-29T09:32:01.523Z,1002.5
2022-11-29T09:34:02.046Z,1002.5
2022-11-29T09:37:01.475Z,1002.5
2022-11-29T09:39:01.463Z,1002.5
2022-11-29T09:41:01.542Z,1002.5
2022-11-29T09:43:01.823Z,1002.6
2022-11-29T09:46:02.066Z,1002.6
2022-11-29T09:49:01.462Z,1002.6
2022-11-29T09:51:01.513Z,1002.6
2022-11-29T09:54:01.425Z,1002.6
2022-11-29T09:56:01.431Z,1002.6
2022-11-29T09:58:02.117Z,1002.6
2022-11-29T10:01:01.480Z,1002.6
2022-11-29T10:03:01.972Z,1002.6
2022-11-29T10:06:01.436Z,1002.6
2022-11-29T10:08:01.510Z,1002.7
2022-11-29T10:10:01.825Z,1002.7
2022-11-29T10:13:02.080Z,1002.7
2022-11-29T10:16:01.691Z,1002.7
2022-11-29T10:18:02.068Z,1002.7
2022-11-29T10:21:01.430Z,1002.7
2022-11-29T10:23:01.749Z,1002.7
2022-11-29T10:26:01.669Z,1002.7
2022-11-29T10:30:01.443Z,1002.6
2022-11-29T10:33:08.244Z,1002.7
2022-11-29T10:35:08.720Z,1002.6
2022-11-29T10:38:30.131Z,1002.6
2022-11-29T10:41:01.421Z,1002.6
2022-11-29T10:43:02.239Z,1002.7
2022-11-29T10:46:02.091Z,1002.7
2022-11-29T10:49:01.750Z,1002.6
2022-11-29T10:53:01.858Z,1002.6
2022-11-29T10:56:01.835Z,1002.7
2022-11-29T10:59:02.116Z,1002.6
2022-11-29T11:02:01.679Z,1002.6
2022-11-29T11:05:01.432Z,1002.6
2022-11-29T11:07:01.622Z,1002.7
2022-11-29T11:10:01.447Z,1002.6
2022-11-29T11:12:01.405Z,1002.6
2022-11-29T11:15:01.461Z,1002.6
2022-11-29T11:18:08.284Z,1002.6
2022-11-29T11:20:08.881Z,1002.6
2022-11-29T11:22:14.611Z,1002.6
2022-11-29T11:25:14.841Z,1002.6
2022-11-29T11:28:01.458Z,1002.6
2022-11-29T11:31:01.551Z,1002.6
2022-11-29T11:33:01.506Z,1002.6
2022-11-29T11:36:01.618Z,1002.7
2022-11-29T11:39:01.457Z,1002.7
2022-11-29T11:42:01.473Z,1002.7
2022-11-29T11:44:04.490Z,1002.7
2022-11-29T11:46:08.344Z,1002.7
2022-11-29T11:49:07.102Z,1002.7
2022-11-29T11:52:01.535Z,1002.7
2022-11-29T11:56:00.494Z,1002.8
2022-11-29T11:58:10.459Z,1002.8
2022-11-29T12:01:04.619Z,1002.9
2022-11-29T12:03:02.268Z,1002.8
2022-11-29T12:06:01.957Z,1002.8
2022-11-29T12:09:01.453Z,1002.8
2022-11-29T12:11:06.979Z,1002.8
2022-11-29T12:14:01.815Z,1002.9
2022-11-29T12:18:01.453Z,1002.8
2022-11-29T12:20:08.123Z,1002.8
2022-11-29T12:22:08.636Z,1002.8
2022-11-29T12:25:01.747Z,1002.8
2022-11-29T12:28:01.455Z,1002.8
2022-11-29T12:30:15.519Z,1002.8
2022-11-29T12:33:01.478Z,1002.9
2022-11-29T12:35:02.010Z,1002.9
2022-11-29T12:38:01.457Z,1002.9
2022-11-29T12:40:01.630Z,1003
2022-11-29T12:43:01.881Z,1002.9
2022-11-29T12:47:28.054Z,1002.9
2022-11-29T12:49:08.074Z,1002.9
2022-11-29T12:52:01.431Z,1002.9
2022-11-29T12:54:01.606Z,1002.9
2022-11-29T12:58:01.452Z,1002.9
2022-11-29T13:01:08.844Z,1002.9
2022-11-29T13:04:01.806Z,1002.9
2022-11-29T13:07:01.426Z,1003
2022-11-29T13:10:01.503Z,1003
2022-11-29T13:15:08.548Z,1003
2022-11-29T13:18:01.453Z,1003.1
2022-11-29T13:21:02.324Z,1003.1
2022-11-29T13:24:08.995Z,1003.1
2022-11-29T13:26:02.948Z,1003.1
2022-11-29T13:29:02.306Z,1003.1
2022-11-29T13:32:01.504Z,1003.2
2022-11-29T13:34:01.530Z,1003.2
2022-11-29T13:36:01.806Z,1003.1
2022-11-29T13:38:02.168Z,1003.1
2022-11-29T13:43:08.818Z,1003.1
2022-11-29T13:47:01.436Z,1003.1
2022-11-29T13:51:01.815Z,1003.2
2022-11-29T13:54:08.057Z,1003.2
2022-11-29T13:56:15.308Z,1003.2
2022-11-29T13:59:01.437Z,1003.2
2022-11-29T14:01:01.516Z,1003.2
2022-11-29T14:03:01.950Z,1003.2
2022-11-29T14:06:01.463Z,1003.3
2022-11-29T14:08:02.201Z,1003.2
2022-11-29T14:11:01.457Z,1003.3
2022-11-29T14:13:01.840Z,1003.3
2022-11-29T14:16:01.502Z,1003.3
2022-11-29T14:18:01.462Z,1003.3
2022-11-29T14:21:01.950Z,1003.4
2022-11-29T14:24:01.545Z,1003.4
2022-11-29T14:27:01.453Z,1003.4
2022-11-29T14:29:02.034Z,1003.4
2022-11-29T14:31:08.083Z,1003.4
2022-11-29T14:33:08.707Z,1003.4
2022-11-29T14:36:01.608Z,1003.5
2022-11-29T14:38:02.066Z,1003.4
2022-11-29T14:41:01.424Z,1003.5
2022-11-29T14:45:01.567Z,1003.5
2022-11-29T14:47:01.494Z,1003.5
2022-11-29T14:49:01.498Z,1003.6
2022-11-29T14:52:01.571Z,1003.6
2022-11-29T14:55:01.462Z,1003.6
2022-11-29T14:58:01.647Z,1003.6
2022-11-29T15:01:05.092Z,1003.6
2022-11-29T15:03:02.021Z,1003.6
2022-11-29T15:06:01.431Z,1003.6
2022-11-29T15:08:01.491Z,1003.6
2022-11-29T15:11:02.315Z,1003.6
2022-11-29T15:14:01.718Z,1003.7
2022-11-29T15:18:01.480Z,1003.7
2022-11-29T15:21:01.496Z,1003.7
2022-11-29T15:23:01.485Z,1003.7
2022-11-29T15:26:01.943Z,1003.7
2022-11-29T15:29:01.514Z,1003.8
2022-11-29T15:31:02.243Z,1003.7
2022-11-29T15:34:10.573Z,1003.8
2022-11-29T15:37:08.036Z,1003.8
2022-11-29T15:40:01.771Z,1003.9
2022-11-29T15:43:01.458Z,1003.9
2022-11-29T15:46:01.553Z,1004
2022-11-29T15:48:01.730Z,1003.9
2022-11-29T15:51:02.212Z,1003.9
2022-11-29T15:54:12.031Z,1004
2022-11-29T15:56:01.490Z,1004
2022-11-29T15:58:05.497Z,1004
2022-11-29T16:01:01.823Z,1004
2022-11-29T16:03:02.328Z,1004
2022-11-29T16:06:01.435Z,1004
2022-11-29T16:08:01.502Z,1004
2022-11-29T16:11:01.457Z,1004.1
2022-11-29T16:13:01.966Z,1004.1
2022-11-29T16:16:01.473Z,1004
2022-11-29T16:18:01.943Z,1004
2022-11-29T16:21:00.610Z,1004
2022-11-29T16:23:01.428Z,1004
2022-11-29T16:25:01.478Z,1004
2022-11-29T16:28:01.837Z,1004.1
2022-11-29T16:32:02.095Z,1004.1
2022-11-29T16:34:02.111Z,1004.2
2022-11-29T16:37:01.555Z,1004.2
2022-11-29T16:40:01.453Z,1004.3
2022-11-29T16:43:01.949Z,1004.3
2022-11-29T16:45:02.143Z,1004.3
2022-11-29T16:48:01.456Z,1004.3
2022-11-29T16:50:02.292Z,1004.3
2022-11-29T16:54:01.439Z,1004.4
2022-11-29T16:56:01.440Z,1004.4
2022-11-29T16:58:01.480Z,1004.4
2022-11-29T17:01:02.384Z,1004.3
2022-11-29T17:04:01.519Z,1004.3
2022-11-29T17:06:01.603Z,1004.3
2022-11-29T17:12:01.970Z,1004.4
2022-11-29T17:15:08.141Z,1004.4
2022-11-29T17:18:01.761Z,1004.4
2022-11-29T17:21:01.444Z,1004.3
2022-11-29T17:24:01.672Z,1004.4
2022-11-29T17:27:02.294Z,1004.4
2022-11-29T17:30:01.445Z,1004.4
2022-11-29T17:32:01.523Z,1004.4
2022-11-29T17:35:01.903Z,1004.5
2022-11-29T17:38:01.493Z,1004.5
2022-11-29T17:40:01.508Z,1004.5
2022-11-29T17:42:02.151Z,1004.5
2022-11-29T17:45:01.503Z,1004.5
2022-11-29T17:47:02.330Z,1004.5
2022-11-29T17:50:00.526Z,1004.5
2022-11-29T17:52:01.622Z,1004.6
2022-11-29T17:54:02.185Z,1004.6
2022-11-29T17:57:01.968Z,1004.6
2022-11-29T18:00:01.470Z,1004.6
2022-11-29T18:03:01.457Z,1004.6
2022-11-29T18:06:01.904Z,1004.6
2022-11-29T18:09:01.986Z,1004.7
2022-11-29T18:12:01.474Z,1004.7
2022-11-29T18:14:01.509Z,1004.8
2022-11-29T18:18:00.562Z,1004.8
2022-11-29T18:20:08.543Z,1004.8
2022-11-29T18:23:14.668Z,1004.8
2022-11-29T18:26:08.048Z,1004.8
2022-11-29T18:29:02.178Z,1004.8
2022-11-29T18:32:02.143Z,1004.8
2022-11-29T18:35:01.481Z,1004.9
2022-11-29T18:38:14.499Z,1004.9
2022-11-29T18:40:02.429Z,1004.9
2022-11-29T18:43:01.610Z,1004.9
2022-11-29T18:46:01.486Z,1004.9
2022-11-29T18:48:02.265Z,1004.9
2022-11-29T18:51:01.446Z,1005
2022-11-29T18:53:01.451Z,1005
2022-11-29T18:55:01.458Z,1004.9
2022-11-29T18:58:01.481Z,1004.9
2022-11-29T19:00:02.232Z,1005
2022-11-29T19:03:01.452Z,1005
2022-11-29T19:06:01.448Z,1005
2022-11-29T19:08:01.598Z,1005
2022-11-29T19:10:02.221Z,1005
2022-11-29T19:14:01.468Z,1004.9
2022-11-29T19:16:01.565Z,1005
2022-11-29T19:18:02.123Z,1005
2022-11-29T19:21:01.582Z,1005.1
2022-11-29T19:23:01.981Z,1005.1
2022-11-29T19:26:01.573Z,1005.1
2022-11-29T19:30:01.484Z,1005.1
2022-11-29T19:32:02.059Z,1005.2
2022-11-29T19:34:02.417Z,1005.2
2022-11-29T19:37:02.314Z,1005.1
2022-11-29T19:40:01.470Z,1005.2
2022-11-29T19:42:02.034Z,1005.2
2022-11-29T19:45:16.277Z,1005.2
2022-11-29T19:48:01.474Z,1005.2
2022-11-29T19:50:02.891Z,1005.2
2022-11-29T19:53:01.783Z,1005.2
2022-11-29T19:56:01.490Z,1005.2
2022-11-29T19:58:01.736Z,1005.2
2022-11-29T20:01:02.174Z,1005.2
2022-11-29T20:04:01.458Z,1005.2
2022-11-29T20:07:01.457Z,1005.1
2022-11-29T20:09:01.664Z,1005.1
2022-11-29T20:11:02.023Z,1005.2
2022-11-29T20:14:01.771Z,1005.2
2022-11-29T20:16:02.156Z,1005.2
2022-11-29T20:19:34.245Z,1005.2
2022-11-29T20:22:01.802Z,1005.3
2022-11-29T20:25:01.458Z,1005.2
2022-11-29T20:27:01.895Z,1005.2
2022-11-29T20:30:01.469Z,1005.2
2022-11-29T20:32:02.047Z,1005.3
2022-11-29T20:34:02.256Z,1005.3
2022-11-29T20:37:08.056Z,1005.3
2022-11-29T20:39:08.626Z,1005.4
2022-11-29T20:41:21.196Z,1005.4
2022-11-29T20:44:08.203Z,1005.4
2022-11-29T20:47:08.566Z,1005.4
2022-11-29T20:49:08.561Z,1005.4
2022-11-29T20:53:02.057Z,1005.5
2022-11-29T20:56:01.486Z,1005.5
2022-11-29T20:59:08.060Z,1005.5
2022-11-29T21:01:08.842Z,1005.5
2022-11-29T21:04:01.493Z,1005.5
2022-11-29T21:06:02.342Z,1005.5
2022-11-29T21:08:02.492Z,1005.5
2022-11-29T21:10:08.077Z,1005.5
2022-11-29T21:12:08.124Z,1005.4
2022-11-29T21:15:01.477Z,1005.5
2022-11-29T21:17:01.466Z,1005.5
2022-11-29T21:20:01.518Z,1005.6
2022-11-29T21:22:01.927Z,1005.6
2022-11-29T21:25:01.461Z,1005.6
2022-11-29T21:27:01.986Z,1005.6
2022-11-29T21:29:02.173Z,1005.6
2022-11-29T21:32:01.488Z,1005.6
2022-11-29T21:35:01.453Z,1005.6
2022-11-29T21:37:08.662Z,1005.6
2022-11-29T21:41:02.201Z,1005.7
2022-11-29T21:44:07.880Z,1005.7
2022-11-29T21:46:01.549Z,1005.7
2022-11-29T21:49:08.734Z,1005.7
2022-11-29T21:52:01.497Z,1005.6
2022-11-29T21:54:01.515Z,1005.6
2022-11-29T21:56:02.038Z,1005.7
2022-11-29T22:00:05.249Z,1005.6
2022-11-29T22:04:05.243Z,1005.6
2022-11-29T22:06:05.210Z,1005.7
2022-11-29T22:08:05.220Z,1005.7
2022-11-29T22:10:15.495Z,1005.7
2022-11-29T22:12:32.887Z,1005.7
2022-11-29T22:16:05.272Z,1005.6
2022-11-29T22:18:05.214Z,1005.6
2022-11-29T22:20:05.246Z,1005.7
2022-11-29T22:22:15.549Z,1005.6
2022-11-29T22:25:05.246Z,1005.6
2022-11-29T22:28:06.225Z,1005.6
2022-11-29T22:30:05.249Z,1005.7
2022-11-29T22:33:08.953Z,1005.7
2022-11-29T22:35:05.264Z,1005.6
2022-11-29T22:38:05.236Z,1005.6
2022-11-29T22:42:05.240Z,1005.6
2022-11-29T22:44:15.516Z,1005.6
2022-11-29T22:47:05.282Z,1005.6
2022-11-29T22:50:05.262Z,1005.6
2022-11-29T22:54:05.238Z,1005.6
2022-11-29T22:56:15.553Z,1005.7
2022-11-29T22:59:05.259Z,1005.7
2022-11-29T23:02:05.292Z,1005.7
2022-11-29T23:06:05.271Z,1005.7
2022-11-29T23:08:15.526Z,1005.7
2022-11-29T23:10:15.543Z,1005.7
2022-11-29T23:14:05.270Z,1005.7
2022-11-29T23:18:05.231Z,1005.6
2022-11-29T23:20:15.527Z,1005.7
2022-11-29T23:24:05.255Z,1005.7
2022-11-29T23:27:05.246Z,1005.7
2022-11-29T23:29:05.273Z,1005.7
2022-11-29T23:32:05.345Z,1005.7
2022-11-29T23:34:05.265Z,1005.8
2022-11-29T23:37:05.260Z,1005.8
2022-11-29T23:40:06.306Z,1005.8
2022-11-29T23:42:05.287Z,1005.8
2022-11-29T23:45:05.252Z,1005.8
2022-11-29T23:48:05.261Z,1005.8
2022-11-29T23:52:05.279Z,1005.8
2022-11-29T23:54:15.518Z,1005.8
2022-11-29T23:57:05.265Z,1005.8
